Hlavní strana
METAR-TAF:

METAR-TAF

Letiště :

Letiště Adolfa Suáreze

Madrid, Španělsko

zeměpisná šířka: 40-27N, zeměpisná délka: 003-33W, výška: 609 m

Aktuální stav počasí

Zpráva byla vytvořena před 19 minutami, v 02:30 UTC
Severozápadní vítr 2 kt
Teplota 2°C
Vlhkost vzduchu 64%
Tlak 1027 hPa
Viditelnost 10 km a více
Žádná oblačnost pod 1500 m, nevyskytují se cumulonimby.

METAR: LEMD 220230Z 32002KT CAVOK 02/M04 Q1027 NOSIG

Čas: 03:49 (02:49 UTC)

Předpověď počasí

Zpráva byla vytvořena před 3 hodinami a 49 minutami, v 23:00 UTC
Předpověď platná od 22 v 00 UTC do 23 v 06 UTC
vítr z různých směrů 5 kt
Viditelnost 10 km a více
Žádná oblačnost pod 1500 m, nevyskytují se cumulonimby.
Dočasný
od 22 v 00 UTC do 22 v 03 UTC
Východojihovýchodní vítr 6 kt
Dočasný
od 22 v 03 UTC do 22 v 10 UTC
Severoseverovýchodní vítr 6 kt
Dočasný
od 22 v 12 UTC do 22 v 17 UTC
Východní vítr 9 kt

TAF: LEMD 212300Z 2200/2306 VRB05KT CAVOK TX21/2215Z TNM00/2206Z TEMPO 2200/2203 12006KT TEMPO 2203/2210 03006KT TEMPO 2212/2217 09009KT

Stav a předpovědi počasí z více než 4 000 letišť (zprávy METAR a TAF).

Červené a žluté tečky na mapě představují dostupné meteorologické stanice.

Když kurzor umístíte na tečku, zobrazí se název stanice.

Pak kliknutím zobrazíte stav a předpověď počasí.

Chcete-li změnit mapu, kliknutím na zelené tlačítko se znaménkem +mapu přiblížíte, kliknutím na zelené tlačítko se znaménkem – mapu oddálíte a kliknutím na zelené šipky přejdete na sousední mapy.


METAR-TAF: